Grays, Arkansas
Current Conditions -  °F | °C
As of 5:56 AM on Saturday 25 Oct 2014 (Local Time) from KM19 Reporting Station
Haze Haze  
Wind Chill: 55°   Ceiling: Unl
Heat Index: 55°   Visibility: 5mi
Dew Point: 54°   Wind: 6mph
Humidity: 97%   Direction: 200°SSW
Pressure: 30.08"   Gusts: NA
Location:  35.2139°N, 91.1509°W
Report Text: KM19 251056Z AUTO 20005KT 5SM BR CLR 13/12 A3008 RMK AO2 T01270122 SLP184
Loading
Personal Weather Stations






























Interactive Weather Map
Tropical Storm Tracking
New forecast layout! Learn more

10-Day Weather Forecast

Advertisements
Track Severe Weather on mobile